Hazelton, Canada
Current Conditions -  °F | °C
As of 10:32 PM on Tuesday 27 Jan 2015 (Local Time) from CYYD Reporting Station
Moderate Fog Moderate Fog  
Wind Chill: 27°   Ceiling: Unl
Heat Index: 27°   Visibility: 0.5mi
Dew Point: 27°   Wind: 2mph
Humidity: 100%   Direction: 140°SE
Pressure: 30.13"   Gusts: NA
Location:  55.25°N, 127.67°W
Report Text: CYYD 280632Z AUTO 14002KT 1/2SM FZFG FEW002 M03/M03 A3013 RMK SLP226
Loading
Personal Weather Stations






























Interactive Weather Map New forecast layout! Learn more

10-Day Weather Forecast

Advertisements
Track Severe Weather on mobile